createdAt,value
2022-12-19T00:01:38.446Z,6.50
2022-12-19T00:04:08.990Z,6.60
2022-12-19T00:06:38.047Z,6.40
2022-12-19T00:09:09.485Z,6.30
2022-12-19T00:11:36.291Z,6.20
2022-12-19T00:14:03.192Z,6.30
2022-12-19T00:16:30.730Z,6.40
2022-12-19T00:19:00.430Z,6.50
2022-12-19T00:21:29.505Z,6.70
2022-12-19T00:23:57.225Z,6.80
2022-12-19T00:26:35.514Z,6.80
2022-12-19T00:29:09.808Z,6.80
2022-12-19T00:31:39.495Z,6.70
2022-12-19T00:34:06.315Z,6.70
2022-12-19T00:36:34.487Z,6.60
2022-12-19T00:39:08.501Z,6.60
2022-12-19T00:41:37.525Z,6.50
2022-12-19T00:44:14.035Z,6.50
2022-12-19T00:46:40.920Z,6.40
2022-12-19T00:49:07.798Z,6.30
2022-12-19T00:51:36.325Z,6.40
2022-12-19T00:54:05.307Z,6.50
2022-12-19T00:56:35.234Z,6.40
2022-12-19T00:59:05.123Z,6.40
2022-12-19T01:01:34.588Z,6.30
2022-12-19T01:04:28.082Z,6.50
2022-12-19T01:06:51.715Z,6.70
2022-12-19T01:09:18.623Z,6.80
2022-12-19T01:12:04.011Z,6.90
2022-12-19T01:14:30.683Z,6.90
2022-12-19T01:16:57.397Z,6.80
2022-12-19T01:19:26.378Z,6.60
2022-12-19T01:21:53.524Z,6.70
2022-12-19T01:24:20.413Z,6.80
2022-12-19T01:26:47.423Z,6.80
2022-12-19T01:29:14.231Z,6.60
2022-12-19T01:31:41.025Z,6.40
2022-12-19T01:34:07.953Z,6.30
2022-12-19T01:36:36.612Z,6.30
2022-12-19T01:39:07.354Z,6.30
2022-12-19T01:41:35.191Z,6.30
2022-12-19T01:44:07.244Z,6.20
2022-12-19T01:46:38.343Z,6.30
2022-12-19T01:49:09.900Z,6.50
2022-12-19T01:51:43.743Z,6.60
2022-12-19T01:54:13.876Z,6.60
2022-12-19T01:56:43.956Z,6.50
2022-12-19T01:59:16.252Z,6.30
2022-12-19T02:01:50.992Z,6.30
2022-12-19T02:04:27.092Z,6.50
2022-12-19T02:06:59.144Z,6.50
2022-12-19T02:09:31.451Z,6.60
2022-12-19T02:12:00.061Z,6.50
2022-12-19T02:14:27.132Z,6.30
2022-12-19T02:17:16.024Z,6.20
2022-12-19T02:20:04.495Z,6.30
2022-12-19T02:23:01.157Z,6.30
2022-12-19T02:25:36.875Z,6.20
2022-12-19T02:28:35.691Z,6.20
2022-12-19T02:31:17.522Z,6.20
2022-12-19T02:34:03.494Z,6.40
2022-12-19T02:36:42.021Z,6.50
2022-12-19T02:39:30.599Z,6.30
2022-12-19T02:42:02.784Z,6.20
2022-12-19T02:44:47.814Z,6.40
2022-12-19T02:47:15.471Z,6.30
2022-12-19T02:49:42.492Z,6.40
2022-12-19T02:52:20.194Z,6.30
2022-12-19T02:54:50.084Z,6.40
2022-12-19T02:57:31.026Z,6.50
2022-12-19T03:00:06.109Z,6.20
2022-12-19T03:03:01.530Z,6.20
2022-12-19T03:05:34.162Z,6.10
2022-12-19T03:08:13.568Z,6.10
2022-12-19T03:11:11.618Z,6.10
2022-12-19T03:13:51.716Z,6.00
2022-12-19T03:16:18.520Z,5.90
2022-12-19T03:18:45.909Z,6.10
2022-12-19T03:21:25.666Z,6.10
2022-12-19T03:23:54.977Z,6.30
2022-12-19T03:26:27.957Z,6.40
2022-12-19T03:29:16.690Z,6.40
2022-12-19T03:31:46.332Z,6.10
2022-12-19T03:34:21.714Z,6.20
2022-12-19T03:36:51.848Z,6.20
2022-12-19T03:39:20.647Z,6.10
2022-12-19T03:42:08.160Z,6.10
2022-12-19T03:44:37.861Z,6.20
2022-12-19T03:47:13.630Z,6.30
2022-12-19T03:49:40.311Z,6.50
2022-12-19T03:52:19.430Z,6.50
2022-12-19T03:54:52.565Z,6.50
2022-12-19T03:58:06.618Z,6.30
2022-12-19T04:00:37.201Z,6.20
2022-12-19T04:03:06.624Z,6.20
2022-12-19T04:05:34.596Z,6.20
2022-12-19T04:08:04.738Z,6.30
2022-12-19T04:10:38.411Z,6.40
2022-12-19T04:13:13.736Z,6.50
2022-12-19T04:15:58.809Z,6.60
2022-12-19T04:18:25.736Z,6.40
2022-12-19T04:21:01.334Z,6.30
2022-12-19T04:23:33.270Z,6.20
2022-12-19T04:26:04.329Z,6.30
2022-12-19T04:28:37.327Z,6.40
2022-12-19T04:31:05.527Z,6.60
2022-12-19T04:33:32.321Z,6.60
2022-12-19T04:36:00.347Z,6.60
2022-12-19T04:38:27.245Z,6.80
2022-12-19T04:40:53.939Z,6.90
2022-12-19T04:43:20.805Z,6.90
2022-12-19T04:45:49.719Z,6.90
2022-12-19T04:48:19.483Z,6.90
2022-12-19T04:50:46.175Z,6.90
2022-12-19T04:53:12.982Z,6.80
2022-12-19T04:55:40.353Z,6.80
2022-12-19T04:58:07.915Z,6.90
2022-12-19T05:00:34.877Z,7.00
2022-12-19T05:03:01.870Z,7.00
2022-12-19T05:05:28.749Z,7.10
2022-12-19T05:07:56.043Z,7.00
2022-12-19T05:10:22.750Z,7.00
2022-12-19T05:12:49.447Z,6.90
2022-12-19T05:15:16.469Z,6.90
2022-12-19T05:17:43.160Z,6.90
2022-12-19T05:20:10.738Z,7.00
2022-12-19T05:22:37.510Z,7.00
2022-12-19T05:25:04.612Z,6.90
2022-12-19T05:27:31.432Z,6.90
2022-12-19T05:29:58.172Z,7.00
2022-12-19T05:32:24.927Z,7.00
2022-12-19T05:34:51.561Z,7.10
2022-12-19T05:37:18.361Z,7.10
2022-12-19T05:39:45.086Z,7.10
2022-12-19T05:42:12.633Z,7.00
2022-12-19T05:44:39.740Z,6.90
2022-12-19T05:47:06.564Z,7.00
2022-12-19T05:49:33.311Z,7.00
2022-12-19T05:52:00.073Z,7.00
2022-12-19T05:54:26.760Z,7.00
2022-12-19T05:56:53.429Z,7.00
2022-12-19T05:59:20.199Z,7.10
2022-12-19T06:01:47.050Z,7.00
2022-12-19T06:04:13.791Z,7.00
2022-12-19T06:06:40.616Z,7.00
2022-12-19T06:09:07.460Z,7.10
2022-12-19T06:11:34.258Z,7.10
2022-12-19T06:14:01.316Z,7.10
2022-12-19T06:16:28.148Z,7.10
2022-12-19T06:18:54.911Z,7.00
2022-12-19T06:21:23.391Z,7.00
2022-12-19T06:23:50.301Z,6.90
2022-12-19T06:26:20.417Z,7.00
2022-12-19T06:28:49.219Z,6.90
2022-12-19T06:31:17.165Z,7.00
2022-12-19T06:33:44.193Z,7.00
2022-12-19T06:36:21.292Z,7.00
2022-12-19T06:38:49.244Z,7.00
2022-12-19T06:41:35.056Z,7.00
2022-12-19T06:44:04.379Z,7.00
2022-12-19T06:46:32.111Z,7.00
2022-12-19T06:48:59.129Z,7.00
2022-12-19T06:51:25.900Z,7.00
2022-12-19T06:53:53.591Z,6.90
2022-12-19T06:56:20.432Z,6.80
2022-12-19T06:58:48.032Z,6.80
2022-12-19T07:01:57.337Z,6.90
2022-12-19T07:04:31.985Z,6.90
2022-12-19T07:06:59.415Z,6.90
2022-12-19T07:09:28.667Z,6.90
2022-12-19T07:11:55.349Z,6.90
2022-12-19T07:14:22.112Z,6.90
2022-12-19T07:16:51.444Z,6.90
2022-12-19T07:19:18.736Z,6.90
2022-12-19T07:21:45.814Z,7.00
2022-12-19T07:24:14.927Z,7.00
2022-12-19T07:26:43.374Z,7.00
2022-12-19T07:29:11.135Z,7.00
2022-12-19T07:31:38.863Z,6.90
2022-12-19T07:34:05.745Z,6.90
2022-12-19T07:36:32.609Z,7.00
2022-12-19T07:38:59.545Z,7.10
2022-12-19T07:41:26.365Z,7.10
2022-12-19T07:43:53.415Z,7.10
2022-12-19T07:46:20.844Z,7.10
2022-12-19T07:48:47.949Z,7.00
2022-12-19T07:51:14.738Z,7.00
2022-12-19T07:53:41.399Z,7.00
2022-12-19T07:56:08.513Z,7.00
2022-12-19T07:58:35.320Z,6.90
2022-12-19T08:01:02.436Z,6.90
2022-12-19T08:03:29.277Z,7.00
2022-12-19T08:06:07.182Z,7.00
2022-12-19T08:08:34.495Z,7.10
2022-12-19T08:11:22.294Z,7.10
2022-12-19T08:13:49.403Z,7.10
2022-12-19T08:16:16.317Z,7.10
2022-12-19T08:18:43.138Z,7.00
2022-12-19T08:21:10.473Z,7.10
2022-12-19T08:23:38.717Z,7.10
2022-12-19T08:26:11.787Z,7.10
2022-12-19T08:28:38.832Z,7.20
2022-12-19T08:31:11.273Z,7.20
2022-12-19T08:33:38.448Z,7.20
2022-12-19T08:36:13.726Z,7.30
2022-12-19T08:38:41.241Z,7.20
2022-12-19T08:41:08.623Z,7.30
2022-12-19T08:43:35.722Z,7.40
2022-12-19T08:46:02.649Z,7.40
2022-12-19T08:48:29.444Z,7.40
2022-12-19T08:51:08.394Z,7.40
2022-12-19T08:53:37.644Z,7.50
2022-12-19T08:56:20.840Z,7.50
2022-12-19T08:58:48.077Z,7.50
2022-12-19T09:01:20.008Z,7.40
2022-12-19T09:03:56.608Z,7.40
2022-12-19T09:06:34.857Z,7.40
2022-12-19T09:09:04.128Z,7.40
2022-12-19T09:11:31.337Z,7.40
2022-12-19T09:13:58.468Z,7.20
2022-12-19T09:16:27.731Z,7.30
2022-12-19T09:18:58.529Z,7.30
2022-12-19T09:21:27.698Z,7.20
2022-12-19T09:24:00.577Z,7.30
2022-12-19T09:26:33.776Z,7.30
2022-12-19T09:29:01.267Z,7.20
2022-12-19T09:31:29.225Z,7.00
2022-12-19T09:33:56.333Z,7.00
2022-12-19T09:36:25.113Z,7.00
2022-12-19T09:38:56.608Z,7.20
2022-12-19T09:41:44.798Z,7.30
2022-12-19T09:44:47.515Z,7.50
2022-12-19T09:47:16.709Z,7.60
2022-12-19T09:49:46.018Z,7.80
2022-12-19T09:52:15.696Z,7.80
2022-12-19T09:55:04.763Z,8.00
2022-12-19T09:58:04.719Z,8.20
2022-12-19T10:01:05.119Z,8.40
2022-12-19T10:03:40.882Z,8.40
2022-12-19T10:07:11.736Z,8.40
2022-12-19T10:11:46.895Z,8.50
2022-12-19T10:12:44.838Z,8.40
2022-12-19T10:15:26.278Z,8.60
2022-12-19T10:17:52.993Z,8.60
2022-12-19T10:20:26.314Z,8.60
2022-12-19T10:23:09.420Z,8.60
2022-12-19T10:25:54.294Z,8.30
2022-12-19T10:28:42.014Z,8.40
2022-12-19T10:31:19.120Z,8.50
2022-12-19T10:34:04.995Z,8.60
2022-12-19T10:37:12.353Z,8.70
2022-12-19T10:39:35.878Z,8.80
2022-12-19T10:42:17.650Z,8.80
2022-12-19T10:44:46.560Z,8.90
2022-12-19T10:47:17.443Z,8.70
2022-12-19T10:49:44.152Z,8.80
2022-12-19T10:52:12.843Z,8.70
2022-12-19T10:54:41.778Z,8.60
2022-12-19T10:57:29.433Z,8.60
2022-12-19T10:59:56.242Z,8.60
2022-12-19T11:02:38.417Z,8.30
2022-12-19T11:05:25.663Z,8.50
2022-12-19T11:08:21.198Z,8.70
2022-12-19T11:14:50.084Z,8.80
2022-12-19T11:20:22.565Z,8.70
2022-12-19T11:24:28.624Z,8.70
2022-12-19T11:29:40.836Z,8.60
2022-12-19T11:29:43.288Z,8.50
2022-12-19T11:30:43.940Z,8.40
2022-12-19T11:30:47.445Z,8.50
2022-12-19T11:34:06.723Z,8.50
2022-12-19T11:37:12.058Z,8.40
2022-12-19T11:39:57.840Z,8.40
2022-12-19T11:42:39.216Z,8.60
2022-12-19T11:45:20.693Z,8.70
2022-12-19T11:48:05.333Z,8.90
2022-12-19T11:50:54.335Z,9.00
2022-12-19T11:53:35.819Z,9.00
2022-12-19T11:56:15.805Z,9.10
2022-12-19T11:58:48.716Z,8.90
2022-12-19T12:01:38.373Z,8.80
2022-12-19T12:04:38.881Z,8.80
2022-12-19T12:07:19.227Z,8.80
2022-12-19T12:14:38.870Z,8.70
2022-12-19T12:23:53.831Z,8.20
2022-12-19T12:24:58.624Z,8.60
2022-12-19T12:31:13.967Z,8.20
2022-12-19T12:31:39.253Z,8.10
2022-12-19T12:31:42.781Z,7.90
2022-12-19T12:32:05.781Z,8.00
2022-12-19T12:35:30.231Z,8.10
2022-12-19T12:38:18.857Z,8.50
2022-12-19T12:41:03.196Z,8.80
2022-12-19T12:43:50.877Z,8.60
2022-12-19T12:46:23.505Z,8.30
2022-12-19T12:49:00.839Z,8.10
2022-12-19T12:51:28.276Z,8.00
2022-12-19T12:54:04.987Z,8.20
2022-12-19T12:56:32.563Z,8.60
2022-12-19T12:59:07.122Z,8.60
2022-12-19T13:01:41.334Z,8.40
2022-12-19T13:04:11.140Z,8.50
2022-12-19T13:06:49.473Z,8.50
2022-12-19T13:09:27.293Z,8.30
2022-12-19T13:12:38.697Z,8.10
2022-12-19T13:15:26.519Z,7.90
2022-12-19T13:17:53.346Z,7.70
2022-12-19T13:20:28.817Z,7.60
2022-12-19T13:22:58.568Z,7.50
2022-12-19T13:25:28.057Z,7.50
2022-12-19T13:28:01.353Z,7.50
2022-12-19T13:30:29.654Z,7.60
2022-12-19T13:32:56.406Z,7.50
2022-12-19T13:39:37.048Z,7.50
2022-12-19T13:39:59.626Z,7.70
2022-12-19T13:41:45.712Z,7.50
2022-12-19T13:44:12.726Z,7.40
2022-12-19T13:46:42.478Z,7.50
2022-12-19T13:49:30.530Z,7.40
2022-12-19T13:52:02.012Z,7.40
2022-12-19T13:54:34.729Z,7.30
2022-12-19T13:57:03.379Z,7.30
2022-12-19T13:59:38.916Z,7.30
2022-12-19T14:02:20.949Z,7.30
2022-12-19T14:04:48.104Z,7.40
2022-12-19T14:07:40.524Z,7.50
2022-12-19T14:11:41.539Z,7.50
2022-12-19T14:13:52.943Z,7.70
2022-12-19T14:16:34.726Z,7.50
2022-12-19T14:19:22.759Z,7.40
2022-12-19T14:22:04.564Z,7.40
2022-12-19T14:24:36.384Z,7.40
2022-12-19T14:28:17.609Z,7.40
2022-12-19T14:30:28.447Z,7.40
2022-12-19T14:33:44.716Z,7.40
2022-12-19T14:36:12.036Z,7.30
2022-12-19T14:39:20.921Z,7.30
2022-12-19T14:42:20.480Z,7.30
2022-12-19T14:52:27.891Z,7.30
2022-12-19T14:54:04.574Z,7.30
2022-12-19T14:54:14.086Z,7.30
2022-12-19T14:54:21.297Z,7.40
2022-12-19T14:59:02.294Z,7.60
2022-12-19T15:01:33.175Z,7.70
2022-12-19T15:04:51.141Z,7.70
2022-12-19T15:07:10.655Z,7.50
2022-12-19T15:11:05.666Z,7.40
2022-12-19T15:14:51.838Z,7.40
2022-12-19T15:15:51.412Z,7.50
2022-12-19T15:18:20.126Z,7.70
2022-12-19T15:20:47.009Z,7.60
2022-12-19T15:23:19.839Z,7.70
2022-12-19T15:26:06.116Z,7.70
2022-12-19T15:28:51.453Z,7.50
2022-12-19T15:31:35.398Z,7.70
2022-12-19T15:37:16.775Z,7.60
2022-12-19T15:39:44.947Z,7.40
2022-12-19T15:42:22.560Z,7.20
2022-12-19T15:44:50.980Z,7.30
2022-12-19T15:47:34.128Z,7.20
2022-12-19T15:50:02.649Z,7.10
2022-12-19T15:52:30.348Z,7.20
2022-12-19T15:54:57.469Z,7.20
2022-12-19T15:57:40.814Z,7.20
2022-12-19T16:00:23.109Z,7.10
2022-12-19T16:05:38.513Z,6.90
2022-12-19T16:08:17.178Z,6.90
2022-12-19T16:10:47.051Z,6.90
2022-12-19T16:13:20.797Z,6.80
2022-12-19T16:15:48.188Z,6.90
2022-12-19T16:18:15.869Z,6.90
2022-12-19T16:20:43.362Z,6.90
2022-12-19T16:23:11.499Z,6.90
2022-12-19T16:25:47.759Z,7.20
2022-12-19T16:28:26.833Z,7.30
2022-12-19T16:30:55.106Z,7.50
2022-12-19T16:33:24.697Z,7.30
2022-12-19T16:36:04.240Z,7.20
2022-12-19T16:38:33.238Z,7.20
2022-12-19T16:41:01.892Z,7.20
2022-12-19T16:43:36.785Z,7.40
2022-12-19T16:46:06.555Z,7.30
2022-12-19T16:48:35.899Z,7.30
2022-12-19T16:51:02.854Z,7.20
2022-12-19T16:53:29.854Z,7.30
2022-12-19T16:55:57.304Z,7.20
2022-12-19T16:58:27.366Z,7.10
2022-12-19T17:00:55.536Z,7.20
2022-12-19T17:03:32.160Z,7.10
2022-12-19T17:05:59.248Z,7.10
2022-12-19T17:08:26.254Z,7.00
2022-12-19T17:10:54.440Z,7.00
2022-12-19T17:13:22.525Z,7.00
2022-12-19T17:15:56.375Z,6.90
2022-12-19T17:18:24.104Z,6.90
2022-12-19T17:20:50.850Z,6.90
2022-12-19T17:23:22.741Z,6.90
2022-12-19T17:25:50.684Z,6.90
2022-12-19T17:28:18.085Z,6.90
2022-12-19T17:30:50.834Z,6.90
2022-12-19T17:33:19.172Z,7.00
2022-12-19T17:35:46.815Z,7.00
2022-12-19T17:38:15.265Z,7.10
2022-12-19T17:40:42.760Z,7.10
2022-12-19T17:43:12.003Z,7.10
2022-12-19T17:45:39.260Z,6.90
2022-12-19T17:48:14.379Z,7.00
2022-12-19T17:50:42.013Z,6.90
2022-12-19T17:53:14.012Z,6.90
2022-12-19T17:55:41.525Z,6.80
2022-12-19T17:58:12.350Z,6.70
2022-12-19T18:00:40.841Z,6.70
2022-12-19T18:03:18.882Z,6.70
2022-12-19T18:05:45.808Z,6.80
2022-12-19T18:08:29.191Z,7.00
2022-12-19T18:10:58.890Z,7.10
2022-12-19T18:13:26.703Z,7.00
2022-12-19T18:16:00.874Z,6.90
2022-12-19T18:18:30.953Z,6.90
2022-12-19T18:20:59.034Z,6.70
2022-12-19T18:23:26.625Z,6.70
2022-12-19T18:26:00.850Z,6.70
2022-12-19T18:28:28.320Z,6.70
2022-12-19T18:31:01.235Z,6.80
2022-12-19T18:33:31.120Z,6.80
2022-12-19T18:35:57.913Z,6.80
2022-12-19T18:38:24.655Z,6.90
2022-12-19T18:40:52.067Z,6.80
2022-12-19T18:43:19.469Z,6.90
2022-12-19T18:45:48.852Z,7.00
2022-12-19T18:48:33.519Z,6.90
2022-12-19T18:51:01.299Z,6.90
2022-12-19T18:53:36.342Z,6.90
2022-12-19T18:56:05.444Z,6.80
2022-12-19T18:58:33.306Z,6.80
2022-12-19T19:01:01.227Z,7.00
2022-12-19T19:03:31.228Z,7.10
2022-12-19T19:05:58.682Z,7.00
2022-12-19T19:08:28.352Z,7.10
2022-12-19T19:10:56.341Z,7.00
2022-12-19T19:13:25.444Z,6.90
2022-12-19T19:15:53.555Z,6.80
2022-12-19T19:18:24.323Z,6.90
2022-12-19T19:21:00.417Z,6.90
2022-12-19T19:23:33.265Z,6.90
2022-12-19T19:26:00.053Z,7.00
2022-12-19T19:28:26.873Z,7.00
2022-12-19T19:30:54.884Z,7.00
2022-12-19T19:33:27.303Z,6.90
2022-12-19T19:35:58.753Z,6.80
2022-12-19T19:38:25.666Z,6.80
2022-12-19T19:40:52.489Z,6.80
2022-12-19T19:43:19.367Z,6.90
2022-12-19T19:45:46.907Z,6.90
2022-12-19T19:48:13.842Z,6.90
2022-12-19T19:50:40.722Z,7.00
2022-12-19T19:53:07.574Z,7.20
2022-12-19T19:55:34.247Z,7.30
2022-12-19T19:58:01.221Z,7.50
2022-12-19T20:00:27.921Z,7.60
2022-12-19T20:02:54.763Z,7.60
2022-12-19T20:05:21.696Z,7.60
2022-12-19T20:07:48.349Z,7.30
2022-12-19T20:10:15.490Z,7.30
2022-12-19T20:12:42.335Z,7.30
2022-12-19T20:15:09.800Z,7.30
2022-12-19T20:17:36.651Z,7.30
2022-12-19T20:20:04.167Z,7.40
2022-12-19T20:22:30.882Z,7.30
2022-12-19T20:24:58.224Z,7.40
2022-12-19T20:27:25.104Z,7.50
2022-12-19T20:29:51.936Z,7.70
2022-12-19T20:32:18.688Z,7.60
2022-12-19T20:34:45.565Z,7.50
2022-12-19T20:37:12.613Z,7.50
2022-12-19T20:39:39.703Z,7.50
2022-12-19T20:42:06.629Z,7.30
2022-12-19T20:44:33.350Z,7.20
2022-12-19T20:47:00.309Z,7.20
2022-12-19T20:49:27.485Z,7.40
2022-12-19T20:51:54.413Z,7.50
2022-12-19T20:54:21.345Z,7.50
2022-12-19T20:56:48.257Z,7.60
2022-12-19T20:59:15.041Z,7.60
2022-12-19T21:01:41.994Z,7.70
2022-12-19T21:04:09.154Z,7.70
2022-12-19T21:06:37.944Z,7.60
2022-12-19T21:09:06.147Z,7.40
2022-12-19T21:11:35.554Z,7.40
2022-12-19T21:14:02.434Z,7.40
2022-12-19T21:16:29.316Z,7.40
2022-12-19T21:18:56.267Z,7.40
2022-12-19T21:21:25.994Z,7.40
2022-12-19T21:23:54.378Z,7.20
2022-12-19T21:26:23.020Z,7.20
2022-12-19T21:28:50.167Z,7.20
2022-12-19T21:31:23.905Z,7.10
2022-12-19T21:33:53.815Z,7.20
2022-12-19T21:36:23.613Z,7.20
2022-12-19T21:38:53.616Z,7.10
2022-12-19T21:41:21.382Z,7.20
2022-12-19T21:43:56.471Z,7.20
2022-12-19T21:46:28.332Z,7.10
2022-12-19T21:48:57.059Z,7.10
2022-12-19T21:51:26.601Z,7.00
2022-12-19T21:53:55.501Z,7.00
2022-12-19T21:56:28.868Z,6.90
2022-12-19T21:58:58.180Z,6.90
2022-12-19T22:01:25.680Z,6.90
2022-12-19T22:03:52.848Z,6.90
2022-12-19T22:06:27.877Z,6.90
2022-12-19T22:08:55.797Z,6.90
2022-12-19T22:11:23.139Z,6.90
2022-12-19T22:13:50.435Z,6.90
2022-12-19T22:16:17.780Z,6.80
2022-12-19T22:18:45.277Z,6.90
2022-12-19T22:21:14.217Z,6.80
2022-12-19T22:23:41.901Z,6.80
2022-12-19T22:26:14.757Z,6.90
2022-12-19T22:28:43.965Z,6.80
2022-12-19T22:31:21.200Z,6.80
2022-12-19T22:33:50.513Z,6.70
2022-12-19T22:36:23.994Z,6.80
2022-12-19T22:38:54.682Z,6.90
2022-12-19T22:41:22.139Z,6.80
2022-12-19T22:43:49.287Z,7.00
2022-12-19T22:46:19.136Z,7.10
2022-12-19T22:48:47.476Z,7.10
2022-12-19T22:51:15.402Z,6.90
2022-12-19T22:53:42.800Z,6.80
2022-12-19T22:56:15.408Z,6.90
2022-12-19T22:58:44.881Z,6.90
2022-12-19T23:01:23.552Z,6.90
2022-12-19T23:03:52.727Z,7.10
2022-12-19T23:06:20.984Z,7.10
2022-12-19T23:08:47.811Z,6.90
2022-12-19T23:11:17.736Z,6.90
2022-12-19T23:13:46.320Z,6.80
2022-12-19T23:16:13.731Z,6.80
2022-12-19T23:18:41.412Z,6.70
2022-12-19T23:21:11.776Z,6.70
2022-12-19T23:23:40.389Z,6.70
2022-12-19T23:26:15.889Z,6.60
2022-12-19T23:28:44.756Z,6.50
2022-12-19T23:31:13.913Z,6.40
2022-12-19T23:33:40.668Z,6.40
2022-12-19T23:36:08.034Z,6.30
2022-12-19T23:38:34.887Z,6.40
2022-12-19T23:41:07.330Z,6.40
2022-12-19T23:43:36.188Z,6.30
2022-12-19T23:46:13.552Z,6.30
2022-12-19T23:48:40.526Z,6.40
2022-12-19T23:51:12.260Z,6.40
2022-12-19T23:53:39.367Z,6.40
2022-12-19T23:56:20.696Z,6.60
2022-12-19T23:58:47.620Z,6.60
